Time;durP1;ratioP1;P1;durP2;ratioP2;P2;SDS_P1;SDS_P2;PMS_P1;PMS_P2;Temp;Humidity;BMP_temperature;BMP_pressure;BME280_temperature;BME280_humidity;BME280_pressure;Samples;Min_cycle;Max_cycle;Signal;HPM_P1;HPM_P2
2022/01/16 09:01:28;;;;;;;83.35;37.67;;;5.20;99.90;;;;;;5074326;27;20508;-70
2022/01/16 09:03:54;;;;;;;88.97;38.20;;;5.20;99.90;;;;;;5066544;28;20053;-71
2022/01/16 09:06:20;;;;;;;80.97;35.90;;;5.20;99.90;;;;;;5068737;28;20189;-71
2022/01/16 09:08:46;;;;;;;83.13;35.40;;;5.20;99.90;;;;;;5073287;28;20472;-71
2022/01/16 09:11:11;;;;;;;83.93;37.90;;;5.20;99.90;;;;;;5073284;28;20060;-72
2022/01/16 09:13:40;;;;;;;69.20;35.50;;;5.30;99.90;;;;;;5062432;28;20117;-71
2022/01/16 09:16:07;;;;;;;69.88;34.88;;;5.30;99.90;;;;;;5062994;28;20052;-71
2022/01/16 09:18:33;;;;;;;67.65;33.10;;;5.30;99.90;;;;;;5077110;28;20041;-73
2022/01/16 09:21:01;;;;;;;75.97;34.08;;;5.30;99.90;;;;;;5072089;28;20081;-73
2022/01/16 09:23:27;;;;;;;75.70;33.88;;;5.40;99.90;;;;;;5065227;28;20092;-72
2022/01/16 09:25:53;;;;;;;65.25;32.38;;;5.40;99.90;;;;;;5068975;28;20032;-73
2022/01/16 09:28:18;;;;;;;64.88;32.65;;;5.40;99.90;;;;;;5061526;28;20072;-74
2022/01/16 09:30:44;;;;;;;67.07;32.75;;;5.40;99.90;;;;;;5058755;28;20041;-73
2022/01/16 09:33:10;;;;;;;63.70;32.17;;;5.40;99.90;;;;;;5056439;28;21336;-71
2022/01/16 09:35:35;;;;;;;66.63;32.67;;;5.40;99.90;;;;;;5059158;28;20052;-74
2022/01/16 09:38:01;;;;;;;59.88;31.05;;;5.50;99.90;;;;;;5061062;28;20694;-74
2022/01/16 09:40:27;;;;;;;65.63;31.85;;;5.50;99.90;;;;;;5060909;28;20043;-74
2022/01/16 09:42:53;;;;;;;64.18;32.10;;;5.50;99.90;;;;;;5064424;28;20040;-74
2022/01/16 09:45:19;;;;;;;60.30;31.52;;;5.60;99.90;;;;;;5059606;28;20128;-72
2022/01/16 09:47:47;;;;;;;61.17;30.80;;;5.50;99.90;;;;;;5055489;28;20052;-72
2022/01/16 09:50:16;;;;;;;57.95;31.27;;;5.50;99.90;;;;;;5062453;28;20043;-74
2022/01/16 09:52:44;;;;;;;59.60;29.75;;;5.50;99.90;;;;;;5061455;28;20045;-70
2022/01/16 09:55:10;;;;;;;54.80;30.17;;;5.60;99.90;;;;;;5063292;28;20041;-73
2022/01/16 09:57:36;;;;;;;58.08;30.77;;;5.60;99.90;;;;;;5058982;28;20135;-71
2022/01/16 10:00:08;;;;;;;47.53;26.58;;;5.60;99.90;;;;;;5061327;28;20058;-69
2022/01/16 10:02:34;;;;;;;53.42;29.55;;;5.60;99.90;;;;;;5061329;28;20118;-70
2022/01/16 10:05:00;;;;;;;54.85;27.13;;;5.70;99.90;;;;;;5061735;28;20733;-70
2022/01/16 10:07:25;;;;;;;45.53;25.45;;;5.70;99.90;;;;;;5056881;28;20049;-70
2022/01/16 10:10:09;;;;;;;45.60;25.67;;;5.70;99.90;;;;;;5043766;28;20053;-73
2022/01/16 10:12:40;;;;;;;42.75;24.48;;;5.80;99.90;;;;;;5046516;28;20109;-70
2022/01/16 10:15:24;;;;;;;43.10;23.88;;;5.80;99.90;;;;;;5050129;28;20048;-71
2022/01/16 10:17:53;;;;;;;38.15;21.67;;;5.80;99.90;;;;;;5050149;28;20136;-73
2022/01/16 10:21:02;;;;;;;40.13;21.90;;;5.90;99.90;;;;;;5050593;28;20057;-76
2022/01/16 10:23:28;;;;;;;36.30;19.52;;;5.90;99.90;;;;;;5055446;28;20045;-75
2022/01/16 10:25:54;;;;;;;36.88;18.70;;;6.00;99.90;;;;;;5052893;28;20052;-73
2022/01/16 10:28:23;;;;;;;31.42;17.63;;;5.90;99.90;;;;;;5049781;28;20110;-73
2022/01/16 10:30:52;;;;;;;31.30;17.63;;;6.00;99.90;;;;;;5053372;28;20132;-73
2022/01/16 10:33:21;;;;;;;29.77;17.08;;;6.00;99.90;;;;;;5048471;28;20063;-73
2022/01/16 10:35:48;;;;;;;29.33;16.45;;;6.00;99.90;;;;;;5050365;28;20064;-73
2022/01/16 10:38:21;;;;;;;28.00;15.48;;;6.10;99.90;;;;;;5050553;28;20080;-74
2022/01/16 10:40:51;;;;;;;29.88;15.75;;;6.10;99.90;;;;;;5048790;28;21153;-73
2022/01/16 10:43:35;;;;;;;27.70;15.82;;;6.20;99.90;;;;;;5048455;28;20214;-72
2022/01/16 10:46:01;;;;;;;30.92;16.05;;;6.20;99.90;;;;;;5046425;28;20050;-72
2022/01/16 10:48:27;;;;;;;26.63;14.52;;;6.30;99.90;;;;;;5050568;28;20052;-72
2022/01/16 10:50:53;;;;;;;27.08;14.07;;;6.30;99.90;;;;;;5052537;28;20112;-73
2022/01/16 10:53:23;;;;;;;26.05;14.45;;;6.30;99.90;;;;;;5048404;28;20061;-72
2022/01/16 10:55:51;;;;;;;24.38;13.27;;;6.40;99.90;;;;;;5050103;28;20053;-72
2022/01/16 10:58:21;;;;;;;25.73;13.02;;;6.40;99.90;;;;;;5052403;28;20114;-71
2022/01/16 11:00:53;;;;;;;27.35;13.13;;;6.50;99.90;;;;;;5049131;28;20053;-72
2022/01/16 11:03:20;;;;;;;22.63;12.23;;;6.50;99.90;;;;;;5044267;28;20158;-73
2022/01/16 11:05:46;;;;;;;22.63;13.07;;;6.50;99.90;;;;;;5048824;28;20159;-73
2022/01/16 11:08:17;;;;;;;19.85;11.88;;;6.50;99.90;;;;;;5050135;28;20057;-73
2022/01/16 11:10:45;;;;;;;22.50;12.90;;;6.60;99.90;;;;;;5060909;28;20049;-72
2022/01/16 11:13:17;;;;;;;23.90;12.13;;;6.60;99.90;;;;;;5050248;28;20060;-73
2022/01/16 11:15:49;;;;;;;19.05;11.88;;;6.60;99.90;;;;;;5053853;28;20170;-73
2022/01/16 11:18:16;;;;;;;26.52;11.85;;;6.60;99.90;;;;;;5050221;28;20110;-73
2022/01/16 11:20:51;;;;;;;19.65;11.68;;;6.70;99.90;;;;;;5047439;28;20184;-72
2022/01/16 11:26:10;;;;;;;;;;;6.70;99.90;;;;;;5046087;28;20064;-72
2022/01/16 11:28:37;;;;;;;22.48;11.85;;;6.70;99.90;;;;;;5048843;28;19924;-72
2022/01/16 11:31:05;;;;;;;22.02;10.27;;;6.80;99.90;;;;;;5037230;28;20198;-74
2022/01/16 11:33:33;;;;;;;20.48;10.52;;;6.80;99.90;;;;;;5042235;28;20056;-73
2022/01/16 11:36:05;;;;;;;17.92;10.10;;;6.80;99.90;;;;;;5046295;28;20133;-73
2022/01/16 11:38:33;;;;;;;20.70;10.18;;;6.80;99.90;;;;;;5048573;28;20049;-73
2022/01/16 11:41:16;;;;;;;17.45;9.18;;;6.80;99.90;;;;;;5046695;28;20049;-72
2022/01/16 11:43:48;;;;;;;19.20;9.68;;;6.90;99.90;;;;;;5045084;28;20080;-72
2022/01/16 11:46:21;;;;;;;18.40;9.85;;;6.90;99.90;;;;;;5045674;28;20091;-73
2022/01/16 11:49:01;;;;;;;17.10;9.40;;;6.90;99.90;;;;;;5041191;28;20385;-74
2022/01/16 11:51:32;;;;;;;22.90;9.13;;;6.90;99.90;;;;;;5046173;28;20057;-74
2022/01/16 11:54:01;;;;;;;18.63;9.23;;;7.00;99.90;;;;;;5042790;28;20063;-73
2022/01/16 11:56:41;;;;;;;18.35;7.50;;;7.00;99.90;;;;;;5044728;28;20040;-72
2022/01/16 11:59:30;;;;;;;14.10;7.78;;;7.00;99.90;;;;;;5037862;28;20381;-73
2022/01/16 12:02:07;;;;;;;18.48;7.75;;;7.10;99.90;;;;;;5043909;28;20049;-72
2022/01/16 12:04:33;;;;;;;17.13;7.80;;;7.10;99.90;;;;;;5045587;28;20198;-73
2022/01/16 12:07:17;;;;;;;13.88;7.30;;;7.20;99.90;;;;;;5045638;28;20512;-73
2022/01/16 12:12:14;;;;;;;14.20;6.70;;;7.30;99.90;;;;;;5047953;28;20048;-73
2022/01/16 12:14:46;;;;;;;13.90;6.68;;;7.40;99.90;;;;;;5024179;28;20037;-73
2022/01/16 12:17:30;;;;;;;17.10;6.60;;;7.40;99.90;;;;;;5038721;28;20427;-73
2022/01/16 12:20:23;;;;;;;15.38;7.05;;;7.40;99.90;;;;;;5048224;28;20041;-73
2022/01/16 12:23:04;;;;;;;14.68;6.55;;;7.50;99.90;;;;;;5046253;28;20645;-75
2022/01/16 12:25:40;;;;;;;13.02;6.72;;;7.50;99.90;;;;;;5048352;28;20415;-73
2022/01/16 12:28:08;;;;;;;14.68;6.47;;;7.50;99.90;;;;;;5042062;28;20045;-75
2022/01/16 12:30:51;;;;;;;19.52;6.68;;;7.60;99.90;;;;;;5044709;28;20124;-73
2022/01/16 12:33:16;;;;;;;13.98;6.63;;;7.60;99.90;;;;;;5043575;28;20078;-74
2022/01/16 12:35:46;;;;;;;15.70;6.45;;;7.60;99.90;;;;;;5046504;28;20087;-74
2022/01/16 12:38:17;;;;;;;13.60;6.43;;;7.60;99.90;;;;;;5053059;28;20049;-73
2022/01/16 12:41:17;;;;;;;16.83;6.93;;;7.60;99.90;;;;;;5045621;28;20064;-74
2022/01/16 12:43:57;;;;;;;14.15;6.32;;;7.60;99.90;;;;;;5045813;28;21272;-73
2022/01/16 12:46:33;;;;;;;13.95;6.80;;;7.60;99.90;;;;;;5047773;28;20040;-75
2022/01/16 12:49:02;;;;;;;18.38;7.03;;;7.60;99.90;;;;;;5048260;28;20044;-74
2022/01/16 12:51:31;;;;;;;13.35;6.00;;;7.70;99.90;;;;;;5048428;28;20113;-74
2022/01/16 12:54:06;;;;;;;15.15;6.22;;;7.70;99.90;;;;;;5032893;28;20452;-74
2022/01/16 12:56:34;;;;;;;;;;;7.70;99.90;;;;;;5044285;28;20043;-76
2022/01/16 12:59:13;;;;;;;11.07;5.88;;;7.70;99.90;;;;;;5053782;28;19939;-76
2022/01/16 13:01:45;;;;;;;18.25;6.68;;;7.70;99.90;;;;;;5049693;28;20049;-76
2022/01/16 13:04:18;;;;;;;16.15;7.38;;;7.70;99.90;;;;;;5050912;28;20096;-76
2022/01/16 13:06:43;;;;;;;14.60;5.88;;;7.70;99.90;;;;;;5043406;28;20175;-76
2022/01/16 13:09:10;;;;;;;15.95;5.93;;;7.70;99.90;;;;;;5053758;28;20167;-77
2022/01/16 13:11:38;;;;;;;12.30;5.88;;;7.70;99.90;;;;;;5043620;28;20055;-76
2022/01/16 13:14:06;;;;;;;13.90;6.30;;;7.70;99.90;;;;;;5046062;28;20049;-75
2022/01/16 13:16:38;;;;;;;11.88;5.70;;;7.60;99.90;;;;;;5048104;28;20044;-76
2022/01/16 13:19:21;;;;;;;12.77;5.72;;;7.70;99.90;;;;;;5046076;28;20061;-76
2022/01/16 13:22:04;;;;;;;15.27;5.78;;;7.60;99.90;;;;;;5045604;28;20516;-76
2022/01/16 13:24:33;;;;;;;12.95;6.00;;;7.60;99.90;;;;;;5042130;28;20097;-74
2022/01/16 13:27:00;;;;;;;13.18;6.28;;;7.60;99.90;;;;;;5038313;28;20045;-75
2022/01/16 13:29:26;;;;;;;11.73;5.55;;;7.60;99.90;;;;;;5044638;28;20049;-74
2022/01/16 13:31:52;;;;;;;11.55;5.63;;;7.60;99.90;;;;;;5048335;28;20045;-76
2022/01/16 13:34:30;;;;;;;13.77;6.20;;;7.60;99.90;;;;;;5044536;28;20483;-75
2022/01/16 13:36:56;;;;;;;15.27;6.57;;;7.60;99.90;;;;;;5045919;28;20050;-75
2022/01/16 13:39:33;;;;;;;14.10;6.70;;;7.60;99.90;;;;;;5046654;28;20053;-75
2022/01/16 13:42:38;;;;;;;15.20;7.63;;;7.60;99.90;;;;;;5056196;28;20036;-75
2022/01/16 13:45:23;;;;;;;22.00;11.07;;;7.50;99.90;;;;;;5049022;28;20045;-76
2022/01/16 13:47:51;;;;;;;21.67;11.68;;;7.50;99.90;;;;;;5040871;28;20057;-75
2022/01/16 13:50:17;;;;;;;21.63;11.00;;;7.50;99.90;;;;;;5042931;28;20041;-75
2022/01/16 13:52:52;;;;;;;25.65;13.23;;;7.50;99.90;;;;;;5049875;28;20059;-74
2022/01/16 13:55:17;;;;;;;28.37;12.80;;;7.40;99.90;;;;;;5036591;28;20455;-75
2022/01/16 13:57:43;;;;;;;25.95;14.15;;;7.40;99.90;;;;;;5045252;28;20156;-74
2022/01/16 14:00:10;;;;;;;25.73;14.07;;;7.30;99.90;;;;;;5036967;28;20358;-76
2022/01/16 14:02:37;;;;;;;27.08;14.57;;;7.30;99.90;;;;;;5038425;28;20052;-75
2022/01/16 14:05:03;;;;;;;28.35;15.25;;;7.30;99.90;;;;;;5047255;28;20969;-74
2022/01/16 14:07:29;;;;;;;31.40;14.82;;;7.30;99.90;;;;;;5045241;28;20151;-75
2022/01/16 14:09:56;;;;;;;28.10;16.02;;;7.30;99.90;;;;;;5048033;28;20121;-76
2022/01/16 14:12:25;;;;;;;28.75;15.48;;;7.30;99.90;;;;;;5035026;28;20064;-74
2022/01/16 14:14:51;;;;;;;27.25;14.80;;;7.40;99.90;;;;;;5046546;28;20128;-76
2022/01/16 14:22:26;;;;;;;32.20;16.70;;;7.30;99.90;;;;;;5050971;28;20173;-75
2022/01/16 14:24:58;;;;;;;38.50;17.27;;;7.30;99.90;;;;;;5049350;28;20072;-76
2022/01/16 14:27:27;;;;;;;38.13;17.38;;;7.30;99.90;;;;;;5052039;28;20503;-74
2022/01/16 14:29:55;;;;;;;35.42;16.67;;;7.30;99.90;;;;;;5054146;28;20044;-74
2022/01/16 14:32:22;;;;;;;32.13;17.88;;;7.30;99.90;;;;;;5043863;28;20056;-73
2022/01/16 14:34:50;;;;;;;36.83;17.70;;;7.30;99.90;;;;;;5049773;28;20037;-73
2022/01/16 14:37:17;;;;;;;35.35;18.05;;;7.30;99.90;;;;;;5048292;28;20067;-73
2022/01/16 14:39:45;;;;;;;38.40;18.25;;;7.30;99.90;;;;;;5052749;28;20429;-73
2022/01/16 14:42:11;;;;;;;41.03;18.85;;;7.30;99.90;;;;;;5051018;28;20116;-74
2022/01/16 14:44:40;;;;;;;40.90;20.00;;;7.30;99.90;;;;;;5052727;28;20120;-75
2022/01/16 14:47:09;;;;;;;35.72;19.52;;;7.30;99.90;;;;;;5051727;28;20478;-72
2022/01/16 14:49:35;;;;;;;39.60;19.13;;;7.30;99.90;;;;;;5048467;28;20083;-73
2022/01/16 14:52:00;;;;;;;40.42;18.60;;;7.20;99.90;;;;;;5051628;28;20064;-74
2022/01/16 14:54:26;;;;;;;40.22;19.10;;;7.20;99.90;;;;;;5050862;28;20048;-75
2022/01/16 14:56:51;;;;;;;41.28;19.52;;;7.30;99.90;;;;;;5048999;28;20048;-75
2022/01/16 14:59:17;;;;;;;44.08;20.40;;;7.20;99.90;;;;;;5047062;28;20111;-74
2022/01/16 15:01:44;;;;;;;39.60;19.58;;;7.30;99.90;;;;;;5046110;28;20056;-75
2022/01/16 15:04:12;;;;;;;40.45;20.30;;;7.30;99.90;;;;;;5050981;28;20468;-71
2022/01/16 15:06:39;;;;;;;43.03;19.92;;;7.30;99.90;;;;;;5022199;28;20476;-72
2022/01/16 15:09:06;;;;;;;42.22;20.23;;;7.30;99.90;;;;;;5050764;28;20056;-72
2022/01/16 15:11:32;;;;;;;43.30;20.65;;;7.30;99.90;;;;;;5050927;28;20515;-72
2022/01/16 15:13:58;;;;;;;43.45;19.55;;;7.20;99.90;;;;;;5053656;28;20037;-73
2022/01/16 15:16:29;;;;;;;42.17;21.05;;;7.20;99.90;;;;;;5054827;28;20098;-71
2022/01/16 15:18:58;;;;;;;42.90;21.13;;;7.30;99.90;;;;;;5050115;28;20373;-73
2022/01/16 15:21:36;;;;;;;44.17;21.63;;;7.30;99.90;;;;;;5051696;28;20079;-73
2022/01/16 15:24:02;;;;;;;41.35;20.50;;;7.20;99.90;;;;;;5052720;28;20701;-74
2022/01/16 15:26:28;;;;;;;42.08;19.65;;;7.20;99.90;;;;;;5042887;28;20057;-72
2022/01/16 15:28:58;;;;;;;40.25;19.40;;;7.20;99.90;;;;;;5046701;28;20055;-74
2022/01/16 15:31:27;;;;;;;40.33;19.42;;;7.20;99.90;;;;;;5048703;28;20048;-73
2022/01/16 15:33:53;;;;;;;35.75;17.85;;;7.20;99.90;;;;;;5044630;28;20071;-73
2022/01/16 15:36:19;;;;;;;40.00;18.05;;;7.20;99.90;;;;;;5044472;28;20124;-73
2022/01/16 15:38:44;;;;;;;39.78;17.70;;;7.20;99.90;;;;;;5048847;28;20465;-73
2022/01/16 15:41:10;;;;;;;38.83;19.50;;;7.10;99.90;;;;;;5046843;28;20062;-73
2022/01/16 15:43:36;;;;;;;33.25;17.95;;;7.20;99.90;;;;;;5050900;28;20037;-72
2022/01/16 15:46:02;;;;;;;36.50;17.73;;;7.20;99.90;;;;;;5050129;28;20041;-73
2022/01/16 15:48:28;;;;;;;29.65;15.85;;;7.20;99.90;;;;;;5041240;28;20068;-71
2022/01/16 15:50:54;;;;;;;27.10;14.52;;;7.20;99.90;;;;;;5049284;28;20385;-74
2022/01/16 15:53:20;;;;;;;25.60;14.07;;;7.10;99.90;;;;;;5048752;28;20094;-73
2022/01/16 15:55:46;;;;;;;32.60;15.40;;;7.20;99.90;;;;;;5046062;28;20128;-74
2022/01/16 15:58:13;;;;;;;31.05;16.10;;;7.20;99.90;;;;;;5051667;28;20119;-73
2022/01/16 16:00:38;;;;;;;30.35;14.32;;;7.20;99.90;;;;;;5046134;28;20093;-75
2022/01/16 16:03:05;;;;;;;25.33;12.63;;;7.10;99.90;;;;;;5046941;28;20092;-77
2022/01/16 16:05:31;;;;;;;29.63;12.82;;;7.20;99.90;;;;;;5044484;28;20503;-74
2022/01/16 16:07:56;;;;;;;23.98;11.93;;;7.20;99.90;;;;;;5047327;28;20044;-72
2022/01/16 16:10:22;;;;;;;27.45;12.02;;;7.10;99.90;;;;;;5049388;28;20099;-71
2022/01/16 16:12:51;;;;;;;28.48;12.23;;;7.10;99.90;;;;;;5044897;28;20052;-74
2022/01/16 16:15:18;;;;;;;22.95;11.43;;;7.10;99.90;;;;;;5051579;28;20090;-74
2022/01/16 16:17:44;;;;;;;21.80;11.05;;;7.20;99.90;;;;;;5046146;28;20127;-73
2022/01/16 16:20:10;;;;;;;23.92;11.20;;;7.20;99.90;;;;;;5047641;28;20433;-73
2022/01/16 16:22:36;;;;;;;22.00;10.68;;;7.10;99.90;;;;;;5047191;28;20044;-74
2022/01/16 16:25:03;;;;;;;22.08;10.50;;;7.10;99.90;;;;;;5050858;28;20040;-71
2022/01/16 16:27:29;;;;;;;21.92;11.75;;;7.10;99.90;;;;;;5046048;28;20041;-70
2022/01/16 16:29:57;;;;;;;20.15;10.82;;;7.10;99.90;;;;;;5044815;28;20121;-71
2022/01/16 16:32:23;;;;;;;26.33;11.73;;;7.10;99.90;;;;;;5051335;28;20124;-75
2022/01/16 16:34:49;;;;;;;22.95;10.88;;;7.10;99.90;;;;;;5047247;28;20114;-74
2022/01/16 16:37:15;;;;;;;24.02;11.10;;;7.10;99.90;;;;;;5041661;28;20044;-74
2022/01/16 16:39:43;;;;;;;22.23;11.15;;;7.10;99.90;;;;;;5045703;28;20411;-72
2022/01/16 16:42:15;;;;;;;24.73;11.02;;;7.10;99.90;;;;;;5048614;28;20041;-73
2022/01/16 16:44:43;;;;;;;21.98;10.32;;;7.00;99.90;;;;;;5045831;28;20045;-74
2022/01/16 16:47:09;;;;;;;21.98;11.10;;;7.00;99.90;;;;;;5046578;28;20044;-74
2022/01/16 16:49:39;;;;;;;21.60;10.98;;;7.00;99.90;;;;;;5055804;28;20175;-74
2022/01/16 16:52:09;;;;;;;19.67;9.73;;;7.00;99.90;;;;;;5048785;28;20095;-73
2022/01/16 16:54:39;;;;;;;22.73;10.93;;;7.00;99.90;;;;;;5048407;28;20103;-74
2022/01/16 16:57:08;;;;;;;23.45;9.68;;;6.90;99.90;;;;;;5049735;28;20096;-74
2022/01/16 16:59:35;;;;;;;19.20;10.40;;;7.00;99.90;;;;;;5049041;28;20064;-75
2022/01/16 17:02:03;;;;;;;22.15;9.90;;;6.90;99.90;;;;;;5053752;28;20119;-74
2022/01/16 17:04:29;;;;;;;22.35;10.55;;;7.00;99.90;;;;;;5051098;28;20119;-76
2022/01/16 17:06:54;;;;;;;21.88;10.05;;;7.00;99.90;;;;;;5046301;28;20156;-71
2022/01/16 17:09:20;;;;;;;21.20;10.48;;;7.00;99.90;;;;;;5039743;28;20094;-72
2022/01/16 17:11:45;;;;;;;22.58;9.57;;;6.90;99.90;;;;;;5049163;28;20065;-72
2022/01/16 17:14:11;;;;;;;19.15;10.20;;;7.00;99.90;;;;;;5038315;28;20045;-72
2022/01/16 17:16:36;;;;;;;25.13;10.32;;;7.00;99.90;;;;;;5050996;28;20045;-74
2022/01/16 17:19:10;;;;;;;20.23;10.82;;;7.00;99.90;;;;;;5041908;28;20053;-71
2022/01/16 17:21:35;;;;;;;19.90;10.18;;;7.00;99.90;;;;;;5042707;28;20376;-73
2022/01/16 17:24:01;;;;;;;21.95;9.52;;;7.00;99.90;;;;;;5049158;28;20131;-71
2022/01/16 17:26:27;;;;;;;18.40;9.80;;;7.00;99.90;;;;;;5051369;28;20064;-76
2022/01/16 17:28:52;;;;;;;21.52;10.18;;;7.00;99.90;;;;;;5056082;28;20033;-71
2022/01/16 17:31:18;;;;;;;21.95;9.98;;;7.00;99.90;;;;;;5050443;28;20036;-72
2022/01/16 17:33:43;;;;;;;19.73;10.57;;;7.00;99.90;;;;;;5053571;28;20453;-74
2022/01/16 17:36:09;;;;;;;22.70;10.50;;;7.00;99.90;;;;;;5053865;28;20037;-73
2022/01/16 17:38:35;;;;;;;24.58;10.65;;;7.00;99.90;;;;;;5036678;28;20661;-75
2022/01/16 17:41:01;;;;;;;21.27;10.20;;;7.00;99.90;;;;;;5055471;28;20125;-68
2022/01/16 17:43:27;;;;;;;22.10;11.00;;;7.00;99.90;;;;;;5052040;28;20071;-72
2022/01/16 17:45:52;;;;;;;21.55;11.55;;;7.00;99.90;;;;;;5049328;28;20044;-73
2022/01/16 17:48:21;;;;;;;20.23;10.80;;;7.00;99.90;;;;;;5053343;28;20113;-76
2022/01/16 17:50:46;;;;;;;23.02;10.60;;;7.00;99.90;;;;;;5043719;28;20423;-70
2022/01/16 17:53:12;;;;;;;21.65;10.70;;;7.00;99.90;;;;;;5035364;28;20049;-72
2022/01/16 17:55:38;;;;;;;22.55;11.32;;;7.00;99.90;;;;;;5051978;28;20039;-73
2022/01/16 17:58:03;;;;;;;22.58;10.77;;;7.00;99.90;;;;;;5048252;28;20051;-71
2022/01/16 18:00:29;;;;;;;20.95;10.82;;;7.00;99.90;;;;;;5046405;28;20088;-73
2022/01/16 18:02:55;;;;;;;22.20;11.02;;;7.00;99.90;;;;;;5053253;28;20124;-72
2022/01/16 18:05:20;;;;;;;24.48;11.40;;;7.00;99.90;;;;;;5056541;28;20518;-73
2022/01/16 18:07:46;;;;;;;22.67;10.40;;;7.00;99.90;;;;;;5054174;28;20048;-71
2022/01/16 18:10:15;;;;;;;21.50;11.07;;;7.00;99.90;;;;;;5056996;28;20048;-74
2022/01/16 18:12:42;;;;;;;19.45;10.30;;;7.00;99.90;;;;;;5044199;28;20037;-71
2022/01/16 18:15:08;;;;;;;19.92;10.05;;;7.00;99.90;;;;;;5041199;28;20068;-72
2022/01/16 18:17:34;;;;;;;22.50;11.48;;;7.00;99.90;;;;;;5042474;28;20274;-70
2022/01/16 18:20:01;;;;;;;24.63;11.10;;;7.00;99.90;;;;;;5040054;28;20158;-71
2022/01/16 18:22:27;;;;;;;29.83;10.85;;;7.00;99.90;;;;;;5043410;28;20216;-72
2022/01/16 18:24:54;;;;;;;24.45;11.40;;;7.00;99.90;;;;;;5047676;28;20167;-70
2022/01/16 18:27:20;;;;;;;21.40;10.52;;;7.10;99.90;;;;;;5046182;28;20052;-69
2022/01/16 18:29:46;;;;;;;22.98;11.07;;;7.00;99.90;;;;;;5049958;28;20087;-69
2022/01/16 18:32:12;;;;;;;25.48;11.55;;;7.00;99.90;;;;;;5046687;28;20048;-69
2022/01/16 18:34:38;;;;;;;29.67;12.05;;;7.00;99.90;;;;;;5025431;28;20398;-69
2022/01/16 18:37:04;;;;;;;26.48;13.38;;;7.00;99.90;;;;;;5044904;28;20060;-69
2022/01/16 18:39:30;;;;;;;23.58;11.68;;;7.00;99.90;;;;;;5043006;28;20169;-69
2022/01/16 18:41:57;;;;;;;28.67;12.00;;;7.00;99.90;;;;;;5044854;28;20486;-70
2022/01/16 18:44:22;;;;;;;25.42;12.93;;;7.00;99.90;;;;;;5052780;28;20140;-71
2022/01/16 18:46:49;;;;;;;25.30;13.15;;;7.00;99.90;;;;;;5045070;28;20166;-71
2022/01/16 18:49:16;;;;;;;24.48;12.25;;;7.00;99.90;;;;;;5042640;28;20092;-71
2022/01/16 18:51:42;;;;;;;24.95;12.30;;;6.90;99.90;;;;;;5047676;28;20159;-70
2022/01/16 18:54:08;;;;;;;19.40;10.52;;;7.00;99.90;;;;;;5046705;28;20041;-71
2022/01/16 18:56:35;;;;;;;22.50;12.00;;;7.00;99.90;;;;;;5049148;28;20055;-70
2022/01/16 18:59:02;;;;;;;26.58;12.30;;;7.00;99.90;;;;;;5046179;28;20044;-71
2022/01/16 19:01:28;;;;;;;29.13;11.55;;;7.00;99.90;;;;;;5048177;28;20037;-70
2022/01/16 19:03:53;;;;;;;32.50;12.60;;;6.90;99.90;;;;;;5046258;28;20053;-70
2022/01/16 19:06:19;;;;;;;31.00;12.15;;;6.90;99.90;;;;;;5049347;28;20385;-71
2022/01/16 19:08:46;;;;;;;24.40;11.88;;;7.00;99.90;;;;;;5043666;28;20048;-71
2022/01/16 19:11:11;;;;;;;26.27;11.95;;;7.00;99.90;;;;;;5042572;28;20048;-71
2022/01/16 19:13:37;;;;;;;30.42;11.63;;;6.90;99.90;;;;;;5047390;28;20072;-72
2022/01/16 19:16:02;;;;;;;29.30;11.48;;;6.90;99.90;;;;;;5046444;28;20033;-73
2022/01/16 19:18:28;;;;;;;27.92;10.88;;;6.90;99.90;;;;;;5044050;28;20045;-71
2022/01/16 19:20:54;;;;;;;23.52;10.85;;;6.90;99.90;;;;;;5026942;28;20344;-70
2022/01/16 19:23:19;;;;;;;21.80;10.55;;;6.90;99.90;;;;;;5043039;28;20053;-69
2022/01/16 19:25:45;;;;;;;22.60;10.32;;;6.90;99.90;;;;;;5043118;28;20053;-71
2022/01/16 19:28:12;;;;;;;23.58;10.68;;;6.90;99.90;;;;;;5037763;28;20049;-70
2022/01/16 19:30:39;;;;;;;23.77;9.32;;;6.90;99.90;;;;;;5048755;28;20048;-72
2022/01/16 19:33:06;;;;;;;25.10;9.70;;;7.00;99.90;;;;;;5052974;28;20093;-74
2022/01/16 19:35:33;;;;;;;29.67;9.82;;;6.90;99.90;;;;;;5045276;28;20041;-73
2022/01/16 19:37:58;;;;;;;26.27;8.77;;;6.90;99.90;;;;;;5025333;28;20049;-73
2022/01/16 19:40:25;;;;;;;25.75;9.00;;;6.90;99.90;;;;;;5037892;28;20111;-72
2022/01/16 19:43:01;;;;;;;21.40;8.50;;;6.90;99.90;;;;;;5021349;28;20060;-72
2022/01/16 19:45:29;;;;;;;19.35;7.88;;;6.90;99.90;;;;;;5046416;28;20853;-71
2022/01/16 19:47:55;;;;;;;22.20;8.30;;;6.90;99.90;;;;;;5046768;28;20049;-73
2022/01/16 19:50:21;;;;;;;23.77;8.05;;;6.90;99.90;;;;;;5041974;28;20160;-72
2022/01/16 19:52:47;;;;;;;23.00;7.25;;;7.00;99.90;;;;;;5041809;28;20093;-72
2022/01/16 19:55:13;;;;;;;21.25;7.35;;;7.00;99.90;;;;;;5046328;28;20483;-72
2022/01/16 19:57:38;;;;;;;20.40;6.80;;;7.00;99.90;;;;;;5040962;28;20102;-72
2022/01/16 20:00:06;;;;;;;23.45;6.80;;;7.00;99.90;;;;;;5045390;28;20080;-73
2022/01/16 20:02:34;;;;;;;22.65;6.63;;;7.00;99.90;;;;;;5033278;28;20059;-72
2022/01/16 20:04:59;;;;;;;23.70;6.13;;;7.00;99.90;;;;;;5032736;28;20053;-72
2022/01/16 20:07:25;;;;;;;20.10;6.13;;;7.10;99.90;;;;;;5039004;28;20047;-70
2022/01/16 20:09:50;;;;;;;19.10;6.07;;;7.00;99.90;;;;;;5041110;28;20143;-70
2022/01/16 20:12:16;;;;;;;20.52;5.82;;;7.00;99.90;;;;;;5043347;28;20113;-72
2022/01/16 20:14:42;;;;;;;18.48;5.28;;;7.00;99.90;;;;;;5042078;28;20045;-71
2022/01/16 20:17:08;;;;;;;20.50;5.25;;;7.00;99.90;;;;;;5031314;28;20055;-73
2022/01/16 20:19:34;;;;;;;21.50;4.85;;;7.00;99.90;;;;;;5035618;28;20069;-72
2022/01/16 20:21:59;;;;;;;22.60;4.78;;;7.00;99.90;;;;;;5044637;28;20662;-72
2022/01/16 20:24:25;;;;;;;21.20;5.05;;;7.00;99.90;;;;;;5050959;28;20041;-71
2022/01/16 20:26:51;;;;;;;22.88;4.63;;;6.90;99.90;;;;;;5033185;28;20050;-72
2022/01/16 20:29:17;;;;;;;15.07;3.53;;;7.00;99.90;;;;;;5043880;28;20045;-71
2022/01/16 20:31:43;;;;;;;12.52;2.85;;;7.00;99.90;;;;;;5045999;28;20044;-72
2022/01/16 20:34:09;;;;;;;15.63;3.42;;;7.00;99.90;;;;;;5041735;28;20112;-72
2022/01/16 20:36:35;;;;;;;22.63;3.97;;;7.00;99.90;;;;;;5041149;28;20065;-73
2022/01/16 20:39:01;;;;;;;20.67;3.90;;;7.00;99.90;;;;;;5036268;28;20041;-72
2022/01/16 20:41:27;;;;;;;17.42;3.72;;;7.00;99.90;;;;;;5035434;28;20057;-72
2022/01/16 20:43:52;;;;;;;13.50;3.05;;;7.00;99.90;;;;;;5036462;28;20053;-73
2022/01/16 20:46:18;;;;;;;18.60;3.53;;;7.00;99.90;;;;;;5037807;28;20056;-73
2022/01/16 20:48:44;;;;;;;16.10;3.03;;;7.00;99.90;;;;;;5027875;28;20041;-71
2022/01/16 20:51:11;;;;;;;17.98;3.63;;;7.00;99.90;;;;;;5041276;28;20551;-72
2022/01/16 20:53:37;;;;;;;17.05;3.78;;;7.00;99.90;;;;;;5034657;28;20053;-73
2022/01/16 20:56:03;;;;;;;18.35;3.22;;;7.00;99.90;;;;;;5040054;28;20511;-73
2022/01/16 20:58:29;;;;;;;17.48;3.47;;;7.00;99.90;;;;;;5035621;28;20065;-72
2022/01/16 21:00:54;;;;;;;21.00;3.67;;;7.00;99.90;;;;;;5036979;28;20543;-73
2022/01/16 21:03:20;;;;;;;16.10;3.38;;;7.00;99.90;;;;;;5034995;28;20095;-72
2022/01/16 21:05:45;;;;;;;17.45;3.22;;;6.90;99.90;;;;;;5037524;28;20740;-72
2022/01/16 21:08:21;;;;;;;16.67;3.72;;;6.90;99.90;;;;;;5038339;28;20139;-72
2022/01/16 21:10:47;;;;;;;14.57;2.90;;;6.90;99.90;;;;;;5039718;28;20425;-72
2022/01/16 21:13:13;;;;;;;13.68;2.97;;;6.90;99.90;;;;;;5027636;28;20493;-71
2022/01/16 21:15:41;;;;;;;12.15;2.38;;;6.90;99.90;;;;;;5038086;28;20045;-71
2022/01/16 21:18:07;;;;;;;12.10;2.20;;;6.80;99.90;;;;;;5034079;28;20042;-72
2022/01/16 21:20:37;;;;;;;10.45;1.73;;;6.80;99.90;;;;;;5034577;28;20056;-71
2022/01/16 21:23:10;;;;;;;13.32;2.60;;;6.70;99.90;;;;;;5034641;28;20056;-72
2022/01/16 21:25:37;;;;;;;13.57;1.98;;;6.80;99.90;;;;;;5034034;28;20128;-71
2022/01/16 21:28:03;;;;;;;12.65;1.83;;;6.70;99.90;;;;;;5036185;28;20042;-72
2022/01/16 21:30:29;;;;;;;10.98;1.80;;;6.70;99.90;;;;;;5037833;28;20468;-72
2022/01/16 21:32:56;;;;;;;10.30;1.88;;;6.70;99.90;;;;;;5040026;28;20050;-71
2022/01/16 21:35:23;;;;;;;15.80;2.40;;;6.60;99.90;;;;;;5036738;28;20080;-71
2022/01/16 21:37:48;;;;;;;12.07;1.50;;;6.60;99.90;;;;;;5040033;28;20079;-71
2022/01/16 21:40:14;;;;;;;9.20;1.30;;;6.60;99.90;;;;;;5039626;28;20183;-72
2022/01/16 21:42:41;;;;;;;12.45;1.50;;;6.60;99.90;;;;;;5036743;28;20049;-72
2022/01/16 21:45:14;;;;;;;5.63;1.40;;;6.60;99.90;;;;;;5045169;28;20048;-71
2022/01/16 21:47:44;;;;;;;6.45;0.95;;;6.60;99.90;;;;;;5038407;28;20052;-72
2022/01/16 21:50:16;;;;;;;5.85;1.30;;;6.50;99.90;;;;;;5044709;28;20041;-73
2022/01/16 21:52:46;;;;;;;9.52;1.15;;;6.50;99.90;;;;;;5046574;28;20460;-71
2022/01/16 21:55:17;;;;;;;7.47;1.10;;;6.50;99.90;;;;;;5045705;28;20092;-72
2022/01/16 21:57:43;;;;;;;8.05;1.10;;;6.50;99.90;;;;;;5038675;28;20049;-72